Time;durP1;ratioP1;P1;durP2;ratioP2;P2;SDS_P1;SDS_P2;PMS_P1;PMS_P2;Temp;Humidity;BMP_temperature;BMP_pressure;BME280_temperature;BME280_humidity;BME280_pressure;Samples;Min_cycle;Max_cycle;Signal;HPM_P1;HPM_P2
2023/07/05 00:01:23;;;;;;;8.57;5.45;;;;;;;16.24;100.00;100405.00;5075800;28;20028;-78
2023/07/05 00:03:49;;;;;;;9.93;6.15;;;;;;;16.20;100.00;100398.59;5073091;28;20051;-78
2023/07/05 00:06:14;;;;;;;11.48;6.45;;;;;;;16.38;100.00;100385.00;5069768;28;20479;-78
2023/07/05 00:08:40;;;;;;;8.82;5.38;;;;;;;16.33;100.00;100390.31;5069101;28;20269;-77
2023/07/05 00:11:08;;;;;;;10.07;6.03;;;;;;;16.12;100.00;100380.97;5070915;28;20063;-77
2023/07/05 00:13:34;;;;;;;14.15;6.78;;;;;;;16.05;100.00;100353.66;5098243;22;20151;-88
2023/07/05 00:16:00;;;;;;;10.32;6.10;;;;;;;16.23;100.00;100353.38;5062301;28;20035;-89
2023/07/05 00:18:26;;;;;;;10.82;5.53;;;;;;;16.04;100.00;100369.03;5074918;28;20460;-88
2023/07/05 00:20:53;;;;;;;15.85;6.97;;;;;;;16.27;100.00;100375.88;5086773;28;20038;-88
2023/07/05 00:23:19;;;;;;;9.25;6.10;;;;;;;16.29;100.00;100358.53;5072067;28;20024;-88
2023/07/05 00:25:44;;;;;;;9.63;5.45;;;;;;;16.30;100.00;100358.09;5072484;28;20089;-88
2023/07/05 00:28:10;;;;;;;9.05;6.10;;;;;;;16.26;100.00;100357.34;5082406;28;20028;-88
2023/07/05 00:30:35;;;;;;;9.20;6.53;;;;;;;16.14;100.00;100349.50;5057684;28;20752;-89
2023/07/05 00:33:00;;;;;;;9.40;6.10;;;;;;;16.27;100.00;100344.81;5059771;28;20032;-88
2023/07/05 00:35:26;;;;;;;12.50;7.63;;;;;;;16.31;100.00;100354.03;5054337;28;20025;-86
2023/07/05 00:37:51;;;;;;;16.73;6.22;;;;;;;16.30;100.00;100346.81;5063915;28;20047;-87
2023/07/05 00:40:17;;;;;;;15.50;7.28;;;;;;;16.01;100.00;100361.38;5063006;28;20032;-89
2023/07/05 00:42:42;;;;;;;12.23;6.75;;;;;;;15.86;100.00;100348.75;5069608;28;20032;-90
2023/07/05 00:45:11;;;;;;;15.57;7.13;;;;;;;15.76;100.00;100370.25;5071662;28;20531;-91
2023/07/05 00:47:47;;;;;;;9.07;6.82;;;;;;;15.85;100.00;100367.69;5066877;28;20032;-90
2023/07/05 00:50:25;;;;;;;16.70;8.20;;;;;;;15.87;100.00;100370.06;5057813;28;20025;-89
2023/07/05 00:52:54;;;;;;;16.90;9.23;;;;;;;15.75;100.00;100377.13;5061651;28;20028;-88
2023/07/05 00:55:21;;;;;;;13.52;7.60;;;;;;;15.88;100.00;100360.41;5062307;28;20096;-87
2023/07/05 00:57:47;;;;;;;14.55;8.48;;;;;;;16.02;100.00;100353.72;5053435;28;20064;-88
2023/07/05 01:00:16;;;;;;;14.00;7.00;;;;;;;15.95;100.00;100349.00;5058355;28;20020;-91
2023/07/05 01:02:45;;;;;;;16.40;6.88;;;;;;;15.92;100.00;100315.19;5057291;28;20539;-93
2023/07/05 01:05:11;;;;;;;17.75;8.40;;;;;;;16.05;100.00;100313.34;5063104;28;20028;-92
2023/07/05 01:07:37;;;;;;;18.25;8.02;;;;;;;15.84;100.00;100291.94;5076626;28;20333;-90
2023/07/05 01:10:03;;;;;;;12.50;7.55;;;;;;;15.68;100.00;100283.28;5062339;28;21189;-90
2023/07/05 01:12:29;;;;;;;15.45;7.07;;;;;;;15.78;100.00;100277.50;5067956;28;20054;-91
2023/07/05 01:15:07;;;;;;;14.60;7.85;;;;;;;15.80;100.00;100263.75;5062289;28;20460;-92
2023/07/05 01:17:38;;;;;;;12.32;7.93;;;;;;;15.69;100.00;100251.03;5065267;28;20493;-91
2023/07/05 01:20:07;;;;;;;13.57;7.88;;;;;;;15.60;100.00;100249.56;5077234;28;20036;-93
2023/07/05 01:22:57;;;;;;;14.40;7.95;;;;;;;15.52;100.00;100231.16;5061210;28;20047;-92
2023/07/05 01:25:36;;;;;;;14.75;8.07;;;;;;;15.67;100.00;100219.63;5072683;28;20421;-93
2023/07/05 01:28:32;;;;;;;11.75;7.07;;;;;;;15.73;100.00;100212.31;5077540;28;20229;-93
2023/07/05 01:31:36;;;;;;;15.75;7.97;;;;;;;15.77;100.00;100218.66;4991137;28;20541;-93
2023/07/05 01:34:27;;;;;;;15.50;8.15;;;;;;;15.79;100.00;100213.38;5057719;28;20059;-95
2023/07/05 01:36:53;;;;;;;14.52;8.40;;;;;;;15.96;100.00;100209.47;5060420;28;20029;-94
2023/07/05 01:39:18;;;;;;;15.18;7.80;;;;;;;15.85;100.00;100194.75;5059859;28;20182;-91
2023/07/05 01:41:44;;;;;;;11.57;7.97;;;;;;;15.71;100.00;100186.53;5055847;28;20036;-91
2023/07/05 01:44:12;;;;;;;15.50;8.98;;;;;;;15.71;100.00;100178.84;5063210;28;20028;-92
2023/07/05 01:46:41;;;;;;;11.60;7.65;;;;;;;15.53;100.00;100159.41;5057140;28;20111;-92
2023/07/05 01:49:21;;;;;;;11.50;7.47;;;;;;;15.71;100.00;100152.66;5060616;28;20420;-89
2023/07/05 01:52:02;;;;;;;15.60;7.78;;;;;;;15.76;100.00;100132.44;5059189;28;20069;-91
2023/07/05 01:54:44;;;;;;;13.57;8.10;;;;;;;15.96;100.00;100129.63;5056631;28;20384;-93
2023/07/05 01:57:24;;;;;;;17.77;9.23;;;;;;;15.87;100.00;100118.91;5060772;28;20029;-91
2023/07/05 01:59:55;;;;;;;13.88;8.45;;;;;;;15.74;100.00;100109.50;5057099;28;20082;-87
2023/07/05 02:02:27;;;;;;;15.40;8.63;;;;;;;15.56;100.00;100130.34;5068276;28;20046;-88
2023/07/05 02:04:53;;;;;;;17.25;8.52;;;;;;;15.57;100.00;100115.00;5060471;28;20115;-88
2023/07/05 02:07:25;;;;;;;16.90;9.75;;;;;;;15.57;100.00;100114.22;5072016;28;20047;-84
2023/07/05 02:09:50;;;;;;;15.38;8.25;;;;;;;15.71;100.00;100091.38;5072901;28;20388;-85
2023/07/05 02:12:15;;;;;;;16.83;9.00;;;;;;;15.55;100.00;100072.34;5072639;28;20056;-85
2023/07/05 02:14:41;;;;;;;20.15;8.60;;;;;;;15.39;100.00;100098.44;5057152;28;20040;-84
2023/07/05 02:17:06;;;;;;;16.98;8.35;;;;;;;15.51;100.00;100082.88;5056200;28;20028;-84
2023/07/05 02:19:31;;;;;;;18.10;9.65;;;;;;;15.33;100.00;100088.06;5056272;28;21512;-83
2023/07/05 02:21:57;;;;;;;17.65;8.77;;;;;;;15.44;100.00;100072.53;5056454;28;20033;-84
2023/07/05 02:24:22;;;;;;;16.70;9.88;;;;;;;15.57;100.00;100058.59;5057614;28;20055;-85
2023/07/05 02:26:48;;;;;;;13.15;8.95;;;;;;;15.71;100.00;100056.75;5061633;28;20017;-85
2023/07/05 02:29:13;;;;;;;15.77;8.88;;;;;;;15.79;100.00;100046.91;5053532;28;20043;-85
2023/07/05 02:31:38;;;;;;;14.10;8.68;;;;;;;15.74;100.00;100033.31;5050134;28;20177;-85
2023/07/05 02:34:04;;;;;;;17.85;8.70;;;;;;;15.74;100.00;100019.22;5059791;28;20028;-84
2023/07/05 02:36:29;;;;;;;17.23;8.40;;;;;;;15.68;100.00;100023.75;5053394;28;20033;-85
2023/07/05 02:38:55;;;;;;;18.23;9.13;;;;;;;15.67;100.00;100011.66;5057929;28;20031;-85
2023/07/05 02:41:20;;;;;;;14.00;8.75;;;;;;;15.76;100.00;100002.66;5071767;28;20020;-86
2023/07/05 02:43:45;;;;;;;16.00;8.90;;;;;;;15.74;100.00;99991.00;5058192;28;20032;-86
2023/07/05 02:46:11;;;;;;;18.13;10.55;;;;;;;15.73;100.00;100003.53;5058735;28;20028;-85
2023/07/05 02:48:36;;;;;;;15.48;8.93;;;;;;;15.58;100.00;100003.78;5057464;28;20103;-85
2023/07/05 02:51:02;;;;;;;17.55;9.77;;;;;;;15.53;100.00;99976.06;5056176;28;20134;-85
2023/07/05 02:53:27;;;;;;;18.98;10.32;;;;;;;15.48;100.00;99984.25;5058819;28;20499;-85
2023/07/05 02:55:54;;;;;;;15.27;9.88;;;;;;;15.49;100.00;99997.13;5058848;28;20028;-85
2023/07/05 02:58:20;;;;;;;14.55;9.85;;;;;;;15.53;100.00;99997.84;5058264;28;20043;-86
2023/07/05 03:00:45;;;;;;;13.60;8.30;;;;;;;15.46;100.00;99995.97;5049797;28;20449;-86
2023/07/05 03:03:11;;;;;;;16.73;9.55;;;;;;;15.51;100.00;99995.44;5056533;28;20107;-86
2023/07/05 03:05:36;;;;;;;17.70;8.88;;;;;;;15.43;100.00;100008.91;5054675;28;20040;-87
2023/07/05 03:08:01;;;;;;;21.15;9.48;;;;;;;15.42;100.00;99995.25;5058491;28;20062;-87
2023/07/05 03:10:27;;;;;;;15.57;7.88;;;;;;;15.44;100.00;99987.94;5061459;28;20480;-87
2023/07/05 03:12:52;;;;;;;16.90;9.18;;;;;;;15.39;100.00;99993.28;5076076;28;20036;-88
2023/07/05 03:15:17;;;;;;;12.50;9.23;;;;;;;15.43;100.00;99986.34;5059598;28;20524;-87
2023/07/05 03:17:43;;;;;;;13.52;8.25;;;;;;;15.52;100.00;99991.41;5062826;28;20556;-88
2023/07/05 03:20:09;;;;;;;12.23;8.15;;;;;;;15.48;100.00;99992.72;5054896;28;20033;-88
2023/07/05 03:22:34;;;;;;;10.18;7.55;;;;;;;15.52;100.00;99991.41;5054612;28;20024;-87
2023/07/05 03:24:59;;;;;;;12.50;7.97;;;;;;;15.51;100.00;99987.00;5054374;28;20060;-88
2023/07/05 03:27:27;;;;;;;17.40;9.30;;;;;;;15.62;100.00;99993.22;5052512;28;20432;-88
2023/07/05 03:29:52;;;;;;;13.15;8.25;;;;;;;15.63;100.00;99994.03;5050902;28;20056;-88
2023/07/05 03:32:19;;;;;;;13.32;7.30;;;;;;;15.70;100.00;100004.34;5055208;28;20132;-89
2023/07/05 03:34:45;;;;;;;10.30;6.72;;;;;;;15.62;100.00;100001.69;5051057;28;20504;-87
2023/07/05 03:37:10;;;;;;;9.35;5.43;;;;;;;15.55;100.00;99987.72;5064543;28;20422;-89
2023/07/05 03:39:35;;;;;;;12.77;5.65;;;;;;;15.68;100.00;100001.97;5054390;28;20036;-88
2023/07/05 03:42:02;;;;;;;13.85;5.40;;;;;;;15.70;100.00;100007.19;5060583;28;20093;-89
2023/07/05 03:44:27;;;;;;;10.57;4.55;;;;;;;15.63;100.00;100005.31;5059326;28;20024;-88
2023/07/05 03:46:53;;;;;;;11.18;4.45;;;;;;;15.75;100.00;100018.78;5055568;28;20055;-89
2023/07/05 03:49:18;;;;;;;5.57;4.10;;;;;;;15.55;100.00;100013.09;5059836;28;20035;-89
2023/07/05 03:51:44;;;;;;;6.70;3.25;;;;;;;15.43;100.00;100017.38;5055694;28;20490;-87
2023/07/05 03:54:09;;;;;;;6.25;3.35;;;;;;;15.52;100.00;100027.28;5063821;28;20036;-88
2023/07/05 03:56:35;;;;;;;4.88;3.03;;;;;;;15.45;100.00;100028.19;5051278;28;20353;-89
2023/07/05 03:59:01;;;;;;;4.43;2.95;;;;;;;15.29;100.00;100014.81;5058053;28;20524;-88
2023/07/05 04:01:28;;;;;;;8.25;3.35;;;;;;;15.35;100.00;100017.94;5046938;28;20385;-88
2023/07/05 04:03:58;;;;;;;6.15;3.42;;;;;;;15.43;100.00;100039.94;5058160;28;20417;-89
2023/07/05 04:06:26;;;;;;;4.78;3.10;;;;;;;15.34;100.00;100044.53;5075340;28;20082;-89
2023/07/05 04:08:52;;;;;;;6.28;3.40;;;;;;;15.08;100.00;100054.69;5061182;28;20035;-88
2023/07/05 04:11:18;;;;;;;6.47;3.42;;;;;;;15.00;100.00;100051.19;5064392;28;20036;-88
2023/07/05 04:13:44;;;;;;;7.88;3.28;;;;;;;14.84;100.00;100055.47;5056901;28;20052;-89
2023/07/05 04:16:13;;;;;;;6.40;3.20;;;;;;;14.67;100.00;100053.72;5043792;28;20464;-89
2023/07/05 04:18:40;;;;;;;8.77;4.05;;;;;;;14.73;100.00;100051.22;5074373;28;20029;-89
2023/07/05 04:21:06;;;;;;;8.48;3.33;;;;;;;14.96;100.00;100056.06;5061999;28;20521;-88
2023/07/05 04:23:32;;;;;;;7.65;4.15;;;;;;;14.64;100.00;100054.56;5061115;28;20021;-88
2023/07/05 04:26:20;;;;;;;7.88;4.30;;;;;;;14.75;100.00;100049.56;5061299;28;20037;-89
2023/07/05 04:28:46;;;;;;;8.45;4.03;;;;;;;14.83;100.00;100050.25;5079574;28;20761;-88
2023/07/05 04:31:16;;;;;;;6.80;4.60;;;;;;;14.71;100.00;100045.22;5059443;28;20035;-87
2023/07/05 04:33:41;;;;;;;8.13;4.72;;;;;;;14.73;100.00;100054.03;5059251;28;22385;-89
2023/07/05 04:36:07;;;;;;;6.18;3.97;;;;;;;14.87;100.00;100050.19;5056677;28;20037;-89
2023/07/05 04:38:33;;;;;;;5.85;4.22;;;;;;;14.80;100.00;100046.28;5060889;28;20038;-88
2023/07/05 04:40:59;;;;;;;7.53;3.80;;;;;;;14.72;100.00;100044.78;5061762;28;20821;-88
2023/07/05 04:43:26;;;;;;;5.50;3.83;;;;;;;14.75;100.00;100032.66;5060725;28;20097;-87
2023/07/05 04:45:55;;;;;;;5.90;4.38;;;;;;;14.59;100.00;100046.63;5058400;28;20043;-89
2023/07/05 04:48:20;;;;;;;7.32;4.18;;;;;;;14.81;100.00;100041.44;5062579;28;20039;-88
2023/07/05 04:50:52;;;;;;;8.18;4.68;;;;;;;14.69;100.00;100034.38;5061620;28;20028;-88
2023/07/05 04:53:19;;;;;;;6.68;3.78;;;;;;;14.64;100.00;100043.31;5062633;28;20024;-87
2023/07/05 04:55:45;;;;;;;5.85;3.90;;;;;;;14.73;100.00;100035.09;5060767;28;20044;-87
2023/07/05 04:58:11;;;;;;;4.05;3.28;;;;;;;14.77;100.00;100040.69;5055265;28;20032;-88
2023/07/05 05:00:36;;;;;;;6.75;4.07;;;;;;;15.04;100.00;100035.00;5058425;28;20020;-88
2023/07/05 05:03:03;;;;;;;7.30;3.63;;;;;;;14.65;100.00;100025.16;5060077;28;20028;-87
2023/07/05 05:05:29;;;;;;;5.10;3.70;;;;;;;14.78;100.00;100020.53;5065811;28;20440;-88
2023/07/05 05:07:54;;;;;;;6.53;3.70;;;;;;;14.52;100.00;100038.22;5063283;28;20054;-87
2023/07/05 05:10:19;;;;;;;8.70;4.25;;;;;;;14.75;100.00;100024.19;5060393;28;20077;-87
2023/07/05 05:12:45;;;;;;;6.57;3.58;;;;;;;14.68;100.00;100010.25;5058526;28;20098;-87
2023/07/05 05:15:10;;;;;;;6.43;4.10;;;;;;;14.57;100.00;100001.19;5054633;28;20508;-87
2023/07/05 05:17:35;;;;;;;5.32;3.13;;;;;;;14.56;100.00;100019.28;5058296;28;20032;-87
2023/07/05 05:20:01;;;;;;;5.63;3.47;;;;;;;14.60;100.00;100014.41;5062713;28;20116;-88
2023/07/05 05:22:28;;;;;;;6.53;4.15;;;;;;;14.61;100.00;100010.38;5050890;28;20435;-87
2023/07/05 05:24:54;;;;;;;6.53;4.45;;;;;;;14.46;100.00;100008.97;5069776;28;20480;-87
2023/07/05 05:27:19;;;;;;;5.82;3.85;;;;;;;14.66;100.00;99995.78;5063981;28;20024;-87
2023/07/05 05:29:45;;;;;;;6.45;3.25;;;;;;;14.60;100.00;99989.06;5045556;28;20067;-88
2023/07/05 05:32:10;;;;;;;5.72;3.47;;;;;;;14.87;100.00;100005.91;5053276;28;20028;-88
2023/07/05 05:34:36;;;;;;;7.05;3.10;;;;;;;14.79;100.00;100013.69;5052047;28;20561;-88
2023/07/05 05:37:01;;;;;;;6.55;3.78;;;;;;;14.86;100.00;100009.94;5067839;28;20032;-87
2023/07/05 05:39:28;;;;;;;6.00;3.88;;;;;;;14.73;100.00;100011.78;5058450;28;20504;-87
2023/07/05 05:41:53;;;;;;;8.23;3.78;;;;;;;14.68;100.00;99987.72;5057598;28;20029;-87
2023/07/05 05:44:19;;;;;;;11.50;3.42;;;;;;;14.83;100.00;99979.81;5053145;28;20085;-87
2023/07/05 05:46:44;;;;;;;7.00;3.00;;;;;;;14.73;100.00;99969.53;5052909;28;20788;-88
2023/07/05 05:49:09;;;;;;;6.38;3.95;;;;;;;14.80;100.00;99977.88;5053084;28;20036;-86
2023/07/05 05:51:35;;;;;;;6.15;3.53;;;;;;;14.73;100.00;99966.72;5058393;28;20040;-87
2023/07/05 05:54:00;;;;;;;7.75;3.15;;;;;;;16.05;100.00;99975.41;5057030;28;20476;-81
2023/07/05 05:56:28;;;;;;;6.30;3.63;;;;;;;16.49;100.00;99971.59;5050285;28;20591;-81
2023/07/05 05:58:54;;;;;;;8.40;3.72;;;;;;;16.81;100.00;99980.06;5052830;28;20419;-81
2023/07/05 06:01:19;;;;;;;9.45;3.30;;;;;;;17.41;100.00;99981.69;5051919;28;20062;-82
2023/07/05 06:03:45;;;;;;;7.63;3.50;;;;;;;17.18;100.00;99980.72;5054168;28;20618;-81
2023/07/05 06:06:10;;;;;;;5.85;3.00;;;;;;;16.79;100.00;99976.06;5060361;28;20031;-82
2023/07/05 06:08:39;;;;;;;7.57;3.60;;;;;;;17.10;100.00;99972.84;5055992;28;20032;-83
2023/07/05 06:11:04;;;;;;;7.88;3.60;;;;;;;17.03;99.23;99951.22;5056670;28;20071;-77
2023/07/05 06:13:31;;;;;;;7.22;3.67;;;;;;;17.60;100.00;99960.97;5071727;28;20474;-77
2023/07/05 06:15:58;;;;;;;8.23;3.55;;;;;;;16.76;98.95;99943.84;5051150;28;20024;-79
2023/07/05 06:18:25;;;;;;;6.32;3.10;;;;;;;16.74;100.00;99956.81;5063921;28;20036;-79
2023/07/05 06:20:51;;;;;;;5.47;3.38;;;;;;;16.41;100.00;99957.63;5057884;28;20085;-79
2023/07/05 06:23:17;;;;;;;5.68;3.03;;;;;;;16.76;99.47;99963.63;5056992;28;20020;-78
2023/07/05 06:25:48;;;;;;;6.18;3.35;;;;;;;16.34;100.00;99943.69;5058208;28;20041;-79
2023/07/05 06:28:14;;;;;;;5.95;2.95;;;;;;;17.15;98.91;99953.31;5060909;28;20036;-79
2023/07/05 06:30:40;;;;;;;7.07;4.25;;;;;;;17.80;95.33;99946.63;5064600;28;21573;-79
2023/07/05 06:33:06;;;;;;;6.60;3.60;;;;;;;17.60;94.13;99957.31;5054992;28;20035;-78
2023/07/05 06:35:33;;;;;;;3.95;2.83;;;;;;;17.70;94.60;99946.94;5062503;28;20032;-78
2023/07/05 06:37:59;;;;;;;12.13;4.72;;;;;;;17.49;99.26;99932.16;5051494;28;20052;-79
2023/07/05 06:40:25;;;;;;;9.77;4.13;;;;;;;18.27;95.97;99950.84;5060385;28;20029;-79
2023/07/05 06:42:50;;;;;;;4.22;2.65;;;;;;;17.75;90.41;99937.88;5055962;28;20036;-78
2023/07/05 06:45:16;;;;;;;8.68;3.38;;;;;;;17.53;94.87;99943.38;5057887;28;20021;-78
2023/07/05 06:47:42;;;;;;;8.27;3.42;;;;;;;17.46;97.20;99938.75;5061736;28;20040;-77
2023/07/05 06:50:08;;;;;;;7.72;3.42;;;;;;;16.44;100.00;99939.00;5073668;28;20032;-79
2023/07/05 06:52:34;;;;;;;6.20;3.47;;;;;;;16.80;100.00;99938.94;5055522;28;20032;-78
2023/07/05 06:54:59;;;;;;;5.38;2.55;;;;;;;15.98;100.00;99935.25;5058719;28;20029;-78
2023/07/05 06:57:25;;;;;;;8.48;3.55;;;;;;;15.96;100.00;99941.34;5064034;28;20048;-78
2023/07/05 06:59:50;;;;;;;4.30;2.78;;;;;;;15.83;100.00;99929.13;5059725;28;20047;-78
2023/07/05 07:02:15;;;;;;;5.18;2.40;;;;;;;15.31;100.00;99946.72;5061789;28;20036;-78
2023/07/05 07:04:41;;;;;;;5.05;3.05;;;;;;;16.37;100.00;99956.13;5061527;28;20424;-79
2023/07/05 07:07:06;;;;;;;5.53;2.80;;;;;;;15.84;100.00;99953.31;5056851;28;20024;-79
2023/07/05 07:09:33;;;;;;;4.38;2.58;;;;;;;16.59;100.00;99945.06;5058996;28;20047;-78
2023/07/05 07:11:58;;;;;;;5.90;2.30;;;;;;;15.53;100.00;99933.75;5057073;28;20044;-78
2023/07/05 07:14:25;;;;;;;3.30;1.80;;;;;;;15.68;100.00;99953.22;5056887;28;20040;-79
2023/07/05 07:16:51;;;;;;;2.08;1.20;;;;;;;15.00;100.00;99952.53;5055839;28;20397;-79
2023/07/05 07:19:17;;;;;;;4.07;1.60;;;;;;;15.90;100.00;99945.91;5053592;28;20036;-79
2023/07/05 07:21:43;;;;;;;3.30;1.35;;;;;;;15.75;100.00;99947.47;5054589;28;20028;-78
2023/07/05 07:24:09;;;;;;;3.50;1.25;;;;;;;15.77;100.00;99933.69;5058786;28;20039;-78
2023/07/05 07:26:34;;;;;;;3.42;1.25;;;;;;;14.71;100.00;99943.81;5059978;28;20029;-78
2023/07/05 07:28:59;;;;;;;4.32;1.30;;;;;;;15.10;100.00;99906.47;5057102;28;20028;-78
2023/07/05 07:31:30;;;;;;;4.47;1.73;;;;;;;15.73;100.00;99913.25;5053504;28;20082;-77
2023/07/05 07:33:56;;;;;;;8.98;2.35;;;;;;;15.75;100.00;99900.28;5055535;28;20040;-78
2023/07/05 07:36:27;;;;;;;3.75;1.42;;;;;;;15.45;100.00;99893.66;5047341;28;20028;-79
2023/07/05 07:38:53;;;;;;;2.60;1.88;;;;;;;15.44;100.00;99896.91;5050657;28;20098;-78
2023/07/05 07:41:28;;;;;;;1.60;0.90;;;;;;;15.53;100.00;99866.06;5050828;28;20074;-79
2023/07/05 07:43:57;;;;;;;1.67;0.90;;;;;;;14.88;100.00;99849.72;5052233;28;20028;-79
2023/07/05 07:46:24;;;;;;;1.10;0.73;;;;;;;14.25;100.00;99830.72;5052926;28;20110;-82
2023/07/05 07:48:52;;;;;;;2.35;0.77;;;;;;;13.20;100.00;99817.44;5046499;28;20032;-82
2023/07/05 07:51:18;;;;;;;1.52;0.80;;;;;;;13.01;100.00;99823.72;5052797;28;20038;-82
2023/07/05 07:53:44;;;;;;;1.65;0.98;;;;;;;13.05;100.00;99804.00;5046520;28;21886;-82
2023/07/05 07:56:14;;;;;;;2.50;1.40;;;;;;;13.20;100.00;99811.84;5062766;28;20082;-83
2023/07/05 07:58:41;;;;;;;1.50;0.98;;;;;;;12.98;100.00;99810.50;5055907;28;20488;-83
2023/07/05 08:01:33;;;;;;;1.80;1.30;;;;;;;12.98;100.00;99802.88;5044338;28;20993;-82
2023/07/05 08:04:01;;;;;;;3.40;1.13;;;;;;;12.94;100.00;99796.50;5061754;28;20450;-81
2023/07/05 08:06:32;;;;;;;6.68;1.67;;;;;;;12.90;100.00;99792.16;5055924;28;20037;-82
2023/07/05 08:08:58;;;;;;;1.98;0.95;;;;;;;12.84;100.00;99796.63;5062361;28;20028;-82
2023/07/05 08:11:23;;;;;;;1.73;0.70;;;;;;;13.07;100.00;99790.31;5057569;28;20035;-82
2023/07/05 08:13:49;;;;;;;3.10;1.40;;;;;;;12.94;100.00;99790.88;5064332;28;20037;-81
2023/07/05 08:16:15;;;;;;;4.80;1.75;;;;;;;12.97;100.00;99772.41;5061024;28;20431;-81
2023/07/05 08:18:41;;;;;;;2.90;1.20;;;;;;;13.18;100.00;99766.50;5057962;28;20039;-82
2023/07/05 08:21:06;;;;;;;2.08;1.00;;;;;;;13.18;100.00;99760.88;5057670;28;20029;-81
2023/07/05 08:23:31;;;;;;;4.43;1.30;;;;;;;12.99;100.00;99764.38;5054259;28;20032;-80
2023/07/05 08:25:57;;;;;;;4.55;1.95;;;;;;;12.97;100.00;99761.19;5063558;28;20032;-80
2023/07/05 08:28:27;;;;;;;2.70;1.10;;;;;;;13.18;100.00;99763.69;5057258;28;20028;-79
2023/07/05 08:30:59;;;;;;;4.30;1.52;;;;;;;13.31;100.00;99763.16;5055115;28;20031;-80
2023/07/05 08:33:27;;;;;;;3.72;1.25;;;;;;;13.00;100.00;99727.41;5060708;28;20071;-80
2023/07/05 08:36:09;;;;;;;4.35;1.80;;;;;;;12.88;100.00;99763.69;5077002;28;20032;-81
2023/07/05 08:38:38;;;;;;;6.38;1.65;;;;;;;12.70;100.00;99783.59;5064546;28;20491;-80
2023/07/05 08:41:42;;;;;;;6.70;2.10;;;;;;;12.84;100.00;99752.53;5063352;28;20036;-81
2023/07/05 08:44:20;;;;;;;4.93;2.10;;;;;;;12.96;100.00;99790.47;5031143;28;20033;-81
2023/07/05 08:46:54;;;;;;;9.15;3.05;;;;;;;12.85;100.00;99756.91;5063223;28;20228;-81
2023/07/05 08:49:23;;;;;;;5.78;2.17;;;;;;;12.67;100.00;99781.59;5067135;28;20020;-80
2023/07/05 08:51:50;;;;;;;8.32;1.95;;;;;;;12.70;100.00;99812.44;5064860;28;20127;-81
2023/07/05 08:54:16;;;;;;;6.47;1.67;;;;;;;13.21;100.00;99799.34;5062324;28;20032;-82
2023/07/05 08:56:51;;;;;;;11.30;2.65;;;;;;;12.72;100.00;99795.97;5061676;28;20029;-81
2023/07/05 08:59:31;;;;;;;3.83;1.60;;;;;;;12.88;100.00;99828.28;5078705;28;20509;-80
2023/07/05 09:01:57;;;;;;;9.80;2.28;;;;;;;12.85;100.00;99829.94;5062320;28;20505;-82
2023/07/05 09:04:32;;;;;;;8.13;1.58;;;;;;;12.95;100.00;99833.84;5067278;28;20021;-82
2023/07/05 09:07:27;;;;;;;9.57;2.65;;;;;;;12.84;100.00;99842.38;5065752;28;20016;-81
2023/07/05 09:10:07;;;;;;;6.38;1.95;;;;;;;12.91;100.00;99852.75;5053488;28;20074;-82
2023/07/05 09:12:54;;;;;;;6.22;2.53;;;;;;;12.81;100.00;99905.78;5072460;28;20032;-82
2023/07/05 09:15:32;;;;;;;5.88;1.85;;;;;;;13.09;100.00;99889.03;5048508;28;20116;-81
2023/07/05 09:18:24;;;;;;;9.88;2.80;;;;;;;12.99;100.00;99911.22;5058936;28;20033;-82
2023/07/05 09:21:47;;;;;;;7.32;2.75;;;;;;;12.85;100.00;99933.03;5071882;28;20063;-81
2023/07/05 09:24:21;;;;;;;14.02;3.50;;;;;;;13.02;100.00;99927.22;4981168;28;20030;-83
2023/07/05 09:26:55;;;;;;;12.23;3.03;;;;;;;12.93;100.00;99946.59;5060581;28;20560;-82
2023/07/05 09:29:56;;;;;;;9.73;3.88;;;;;;;12.90;100.00;99963.47;5061911;28;20028;-82
2023/07/05 09:32:33;;;;;;;11.95;3.08;;;;;;;13.07;100.00;99964.50;5024554;28;20040;-82
2023/07/05 09:34:59;;;;;;;4.97;2.05;;;;;;;13.01;100.00;99969.81;5061792;28;20510;-82
2023/07/05 09:37:34;;;;;;;15.55;4.63;;;;;;;13.12;100.00;99976.09;5079580;28;20016;-84
2023/07/05 09:40:22;;;;;;;12.68;3.28;;;;;;;13.10;100.00;99984.16;5061223;28;21814;-83
2023/07/05 09:42:55;;;;;;;6.93;2.50;;;;;;;13.19;100.00;99992.88;5055370;28;20040;-84
2023/07/05 09:45:21;;;;;;;14.20;3.22;;;;;;;12.94;100.00;100020.41;5060704;28;20221;-84
2023/07/05 09:47:50;;;;;;;17.95;2.67;;;;;;;13.17;100.00;100029.03;5061166;28;20356;-84
2023/07/05 09:50:18;;;;;;;12.95;2.70;;;;;;;13.00;100.00;100039.22;5062485;28;20036;-81
2023/07/05 09:53:11;;;;;;;9.18;3.30;;;;;;;13.15;100.00;100047.50;5053205;28;20035;-80
2023/07/05 09:56:01;;;;;;;11.20;2.55;;;;;;;13.14;100.00;100051.56;5058013;28;20388;-81
2023/07/05 09:58:26;;;;;;;15.55;3.97;;;;;;;13.09;100.00;100055.63;5052488;28;20036;-82
2023/07/05 10:00:52;;;;;;;6.05;2.40;;;;;;;13.07;100.00;100083.31;5053774;28;20051;-82
2023/07/05 10:03:20;;;;;;;8.85;2.20;;;;;;;13.23;100.00;100079.97;5051311;28;20040;-81
2023/07/05 10:05:53;;;;;;;4.60;1.88;;;;;;;13.10;100.00;100104.97;5053205;28;20077;-81
2023/07/05 10:08:21;;;;;;;6.03;2.13;;;;;;;13.12;100.00;100116.59;5063837;28;20035;-81
2023/07/05 10:10:48;;;;;;;11.82;3.22;;;;;;;13.02;100.00;100134.31;5055995;28;20032;-81
2023/07/05 10:13:21;;;;;;;6.95;2.38;;;;;;;13.10;100.00;100135.06;5079358;28;20049;-81
2023/07/05 10:15:49;;;;;;;8.88;2.42;;;;;;;12.97;100.00;100152.41;5064218;28;20029;-80
2023/07/05 10:18:39;;;;;;;9.40;2.35;;;;;;;12.89;100.00;100141.66;5063866;28;20028;-81
2023/07/05 10:21:15;;;;;;;5.68;1.80;;;;;;;12.98;100.00;100195.34;5066464;28;20472;-81
2023/07/05 10:23:40;;;;;;;6.53;2.63;;;;;;;12.94;100.00;100158.06;5058756;28;20112;-80
2023/07/05 10:26:06;;;;;;;8.48;2.35;;;;;;;12.79;100.00;100182.63;5075193;28;20028;-81
2023/07/05 10:28:37;;;;;;;6.03;2.42;;;;;;;13.07;100.00;100209.75;5063189;28;20031;-79
2023/07/05 10:31:04;;;;;;;7.60;2.10;;;;;;;12.88;100.00;100218.69;5061234;28;20028;-81
2023/07/05 10:33:41;;;;;;;4.97;2.00;;;;;;;12.72;100.00;100208.75;5062923;28;20145;-81
2023/07/05 10:36:09;;;;;;;6.93;2.83;;;;;;;12.84;100.00;100212.28;5061219;28;20028;-80
2023/07/05 10:38:44;;;;;;;9.98;2.00;;;;;;;12.84;100.00;100223.50;5077778;28;20080;-79
2023/07/05 10:41:21;;;;;;;3.28;1.80;;;;;;;13.10;100.00;100222.97;5054844;28;20119;-79
2023/07/05 10:44:21;;;;;;;4.53;1.95;;;;;;;12.96;100.00;100259.56;5057732;28;20036;-79
2023/07/05 10:46:48;;;;;;;11.95;2.78;;;;;;;12.96;100.00;100270.81;5057090;28;20115;-79
2023/07/05 10:49:17;;;;;;;8.68;2.33;;;;;;;12.85;100.00;100276.47;5061256;28;20036;-79
2023/07/05 10:52:00;;;;;;;7.55;2.20;;;;;;;13.08;100.00;100289.22;5063032;28;20545;-79
2023/07/05 10:54:47;;;;;;;5.97;2.42;;;;;;;13.21;100.00;100326.88;5063056;28;20389;-79
2023/07/05 10:57:19;;;;;;;10.35;2.97;;;;;;;13.16;100.00;100316.06;5063209;28;20431;-79
2023/07/05 10:59:58;;;;;;;5.18;2.63;;;;;;;13.16;100.00;100313.25;5075071;28;20029;-79
2023/07/05 11:02:55;;;;;;;9.32;2.75;;;;;;;13.22;100.00;100329.28;5060141;28;20032;-79
2023/07/05 11:05:51;;;;;;;9.57;2.75;;;;;;;13.25;100.00;100349.34;5061476;28;20051;-79
2023/07/05 11:08:24;;;;;;;9.35;3.17;;;;;;;13.42;100.00;100359.72;5062373;28;20544;-79
2023/07/05 11:10:51;;;;;;;11.00;2.45;;;;;;;13.25;100.00;100367.00;5059039;28;20067;-78
2023/07/05 11:13:18;;;;;;;17.80;4.38;;;;;;;13.19;100.00;100371.44;5058918;28;20100;-78
2023/07/05 11:15:45;;;;;;;8.48;3.10;;;;;;;13.24;100.00;100382.28;5062184;28;20047;-78
2023/07/05 11:18:20;;;;;;;10.32;3.80;;;;;;;13.48;100.00;100397.44;5070063;28;20036;-78
2023/07/05 11:20:50;;;;;;;7.47;3.20;;;;;;;13.21;100.00;100416.81;5063428;28;20384;-78
2023/07/05 11:23:40;;;;;;;12.70;3.90;;;;;;;13.38;100.00;100426.41;5062813;28;20101;-79
2023/07/05 11:26:06;;;;;;;7.50;3.30;;;;;;;13.38;100.00;100417.97;5057771;28;20108;-78
2023/07/05 11:28:43;;;;;;;9.95;3.33;;;;;;;13.22;100.00;100446.53;5061375;28;20776;-79